createdAt,value
2018-01-21T00:00:49.450Z,2.60
2018-01-21T00:03:17.705Z,2.60
2018-01-21T00:05:45.982Z,2.50
2018-01-21T00:08:13.478Z,2.50
2018-01-21T00:10:40.990Z,2.50
2018-01-21T00:13:08.486Z,2.50
2018-01-21T00:15:35.997Z,2.50
2018-01-21T00:18:03.494Z,2.40
2018-01-21T00:20:31.777Z,2.40
2018-01-21T00:22:59.265Z,2.40
2018-01-21T00:25:26.761Z,2.40
2018-01-21T00:27:54.275Z,2.40
2018-01-21T00:30:21.769Z,2.30
2018-01-21T00:32:49.283Z,2.30
2018-01-21T00:35:16.777Z,2.30
2018-01-21T00:37:44.275Z,2.30
2018-01-21T00:40:12.549Z,2.40
2018-01-21T00:42:40.815Z,2.40
2018-01-21T00:45:09.092Z,2.30
2018-01-21T00:47:37.349Z,2.30
2018-01-21T00:50:04.866Z,2.30
2018-01-21T00:52:32.362Z,2.30
2018-01-21T00:54:59.854Z,2.30
2018-01-21T00:57:27.395Z,2.30
2018-01-21T00:59:54.885Z,2.40
2018-01-21T01:02:22.402Z,2.40
2018-01-21T01:04:50.662Z,2.30
2018-01-21T01:07:18.149Z,2.30
2018-01-21T01:09:45.670Z,2.30
2018-01-21T01:12:13.166Z,2.30
2018-01-21T01:14:41.446Z,2.20
2018-01-21T01:17:09.706Z,2.20
2018-01-21T01:19:37.222Z,2.20
2018-01-21T01:22:04.713Z,2.20
2018-01-21T01:24:32.228Z,2.20
2018-01-21T01:26:59.716Z,2.20
2018-01-21T01:29:27.225Z,2.20
2018-01-21T01:31:54.741Z,2.10
2018-01-21T01:34:22.233Z,2.20
2018-01-21T01:36:50.513Z,2.20
2018-01-21T01:39:18.774Z,2.20
2018-01-21T01:41:46.286Z,2.20
2018-01-21T01:44:13.782Z,2.20
2018-01-21T01:46:41.278Z,2.20
2018-01-21T01:49:08.793Z,2.20
2018-01-21T01:51:36.281Z,2.20
2018-01-21T01:54:04.564Z,2.20
2018-01-21T01:56:32.824Z,2.20
2018-01-21T01:59:01.106Z,2.30
2018-01-21T02:01:29.360Z,2.30
2018-01-21T02:03:56.849Z,2.20
2018-01-21T02:06:25.133Z,2.30
2018-01-21T02:08:52.622Z,2.20
2018-01-21T02:11:20.129Z,2.30
2018-01-21T02:13:48.382Z,2.30
2018-01-21T02:16:15.892Z,2.30
2018-01-21T02:18:43.377Z,2.30
2018-01-21T02:21:10.861Z,2.30
2018-01-21T02:23:38.361Z,2.30
2018-01-21T02:26:05.844Z,2.30
2018-01-21T02:28:33.357Z,2.30
2018-01-21T02:31:01.610Z,2.30
2018-01-21T02:33:29.097Z,2.30
2018-01-21T02:35:57.388Z,2.30
2018-01-21T02:38:24.878Z,2.30
2018-01-21T02:40:52.386Z,2.30
2018-01-21T02:43:20.630Z,2.30
2018-01-21T02:45:48.136Z,2.30
2018-01-21T02:48:15.620Z,2.30
2018-01-21T02:50:43.105Z,2.30
2018-01-21T02:53:10.609Z,2.30
2018-01-21T02:55:38.093Z,2.30
2018-01-21T02:58:05.601Z,2.30
2018-01-21T03:00:33.086Z,2.30
2018-01-21T03:03:00.574Z,2.30
2018-01-21T03:05:28.081Z,2.30
2018-01-21T03:07:56.329Z,2.40
2018-01-21T03:10:23.833Z,2.40
2018-01-21T03:12:51.318Z,2.40
2018-01-21T03:15:18.826Z,2.40
2018-01-21T03:17:47.081Z,2.40
2018-01-21T03:20:14.566Z,2.40
2018-01-21T03:22:42.845Z,2.50
2018-01-21T03:25:11.101Z,2.50
2018-01-21T03:27:38.612Z,2.40
2018-01-21T03:30:06.104Z,2.50
2018-01-21T03:32:40.261Z,2.50
2018-01-21T03:35:08.514Z,2.40
2018-01-21T03:37:36.002Z,2.40
2018-01-21T03:40:03.509Z,2.40
2018-01-21T03:42:30.994Z,2.40
2018-01-21T03:44:59.269Z,2.40
2018-01-21T03:47:27.526Z,2.40
2018-01-21T03:49:55.033Z,2.40
2018-01-21T03:52:22.521Z,2.40
2018-01-21T03:54:49.997Z,2.40
2018-01-21T03:57:17.513Z,2.40
2018-01-21T03:59:45.002Z,2.40
2018-01-21T04:02:12.511Z,2.40
2018-01-21T04:04:40.761Z,2.40
2018-01-21T04:07:08.254Z,2.40
2018-01-21T04:09:35.762Z,2.40
2018-01-21T04:12:03.245Z,2.40
2018-01-21T04:14:31.518Z,2.40
2018-01-21T04:16:59.768Z,2.40
2018-01-21T04:19:27.278Z,2.40
2018-01-21T04:21:54.774Z,2.40
2018-01-21T04:24:22.288Z,2.40
2018-01-21T04:26:50.540Z,2.40
2018-01-21T04:29:18.030Z,2.40
2018-01-21T04:31:45.541Z,2.40
2018-01-21T04:34:13.025Z,2.40
2018-01-21T04:36:41.298Z,2.40
2018-01-21T04:39:09.549Z,2.40
2018-01-21T04:41:37.066Z,2.40
2018-01-21T04:44:04.557Z,2.30
2018-01-21T04:46:32.072Z,2.30
2018-01-21T04:48:59.554Z,2.30
2018-01-21T04:51:27.037Z,2.30
2018-01-21T04:53:54.541Z,2.30
2018-01-21T04:56:22.026Z,2.30
2018-01-21T04:58:49.537Z,2.30
2018-01-21T05:01:17.027Z,2.20
2018-01-21T05:03:44.520Z,2.30
2018-01-21T05:06:12.026Z,2.30
2018-01-21T05:08:40.277Z,2.30
2018-01-21T05:11:07.801Z,2.30
2018-01-21T05:13:35.286Z,2.30
2018-01-21T05:16:02.765Z,2.30
2018-01-21T05:18:31.037Z,2.30
2018-01-21T05:20:58.521Z,2.30
2018-01-21T05:23:26.031Z,2.30
2018-01-21T05:25:53.513Z,2.30
2018-01-21T05:28:21.784Z,2.30
2018-01-21T05:30:49.269Z,2.40
2018-01-21T05:33:16.776Z,2.40
2018-01-21T05:35:44.266Z,2.30
2018-01-21T05:38:12.517Z,2.30
2018-01-21T05:40:40.070Z,2.30
2018-01-21T05:43:07.538Z,2.30
2018-01-21T05:45:35.046Z,2.30
2018-01-21T05:48:02.530Z,2.30
2018-01-21T05:50:30.018Z,2.30
2018-01-21T05:52:57.530Z,2.30
2018-01-21T05:55:25.014Z,2.30
2018-01-21T05:57:52.521Z,2.30
2018-01-21T06:00:20.765Z,2.30
2018-01-21T06:02:48.258Z,2.30
2018-01-21T06:05:15.766Z,2.30
2018-01-21T06:07:43.249Z,2.40
2018-01-21T06:10:10.759Z,2.40
2018-01-21T06:12:38.241Z,2.40
2018-01-21T06:15:05.749Z,2.40
2018-01-21T06:17:33.233Z,2.50
2018-01-21T06:20:00.733Z,2.50
2018-01-21T06:22:28.221Z,2.50
2018-01-21T06:24:55.725Z,2.50
2018-01-21T06:27:23.215Z,2.50
2018-01-21T06:29:50.725Z,2.50
2018-01-21T06:32:18.210Z,2.40
2018-01-21T06:34:45.713Z,2.40
2018-01-21T06:37:13.202Z,2.40
2018-01-21T06:39:40.685Z,2.30
2018-01-21T06:42:08.189Z,2.30
2018-01-21T06:44:35.677Z,2.30
2018-01-21T06:47:03.197Z,2.30
2018-01-21T06:49:32.054Z,2.40
2018-01-21T06:52:01.045Z,2.40
2018-01-21T06:54:28.557Z,2.40
2018-01-21T06:56:56.040Z,2.40
2018-01-21T06:59:23.551Z,2.40
2018-01-21T07:01:51.802Z,2.40
2018-01-21T07:04:19.289Z,2.40
2018-01-21T07:06:47.563Z,2.30
2018-01-21T07:09:15.816Z,2.30
2018-01-21T07:11:43.325Z,2.30
2018-01-21T07:14:10.809Z,2.30
2018-01-21T07:16:38.316Z,2.30
2018-01-21T07:19:06.569Z,2.20
2018-01-21T07:21:34.820Z,2.20
2018-01-21T07:24:02.326Z,2.20
2018-01-21T07:26:30.578Z,2.20
2018-01-21T07:28:58.086Z,2.20
2018-01-21T07:31:25.570Z,2.20
2018-01-21T07:33:53.062Z,2.20
2018-01-21T07:36:21.337Z,2.20
2018-01-21T07:38:49.584Z,2.20
2018-01-21T07:41:17.091Z,2.20
2018-01-21T07:43:44.581Z,2.20
2018-01-21T07:46:12.070Z,2.20
2018-01-21T07:48:39.576Z,2.20
2018-01-21T07:51:07.057Z,2.20
2018-01-21T07:53:34.561Z,2.20
2018-01-21T07:56:02.054Z,2.20
2018-01-21T07:58:29.566Z,2.20
2018-01-21T08:00:57.058Z,2.30
2018-01-21T08:03:24.549Z,2.40
2018-01-21T08:05:52.061Z,2.40
2018-01-21T08:08:20.313Z,2.50
2018-01-21T08:10:47.822Z,2.50
2018-01-21T08:13:15.309Z,2.60
2018-01-21T08:15:42.819Z,2.60
2018-01-21T08:18:11.069Z,2.60
2018-01-21T08:20:38.553Z,2.60
2018-01-21T08:23:06.825Z,2.70
2018-01-21T08:25:35.073Z,2.80
2018-01-21T08:28:02.577Z,2.80
2018-01-21T08:30:30.061Z,2.80
2018-01-21T08:32:57.546Z,2.80
2018-01-21T08:38:37.530Z,2.90
2018-01-21T08:41:10.692Z,2.90
2018-01-21T08:43:38.197Z,2.90
2018-01-21T08:46:06.454Z,3.00
2018-01-21T08:48:33.941Z,3.00
2018-01-21T08:51:01.449Z,3.00
2018-01-21T08:53:28.933Z,3.10
2018-01-21T08:55:57.211Z,3.10
2018-01-21T08:58:25.460Z,3.30
2018-01-21T09:00:52.941Z,3.30
2018-01-21T09:03:21.213Z,3.40
2018-01-21T09:05:48.697Z,3.40
2018-01-21T09:08:16.190Z,3.40
2018-01-21T09:10:43.710Z,3.40
2018-01-21T09:13:11.194Z,3.40
2018-01-21T09:15:38.696Z,3.50
2018-01-21T09:18:06.201Z,3.50
2018-01-21T09:20:33.681Z,3.40
2018-01-21T09:23:01.165Z,3.50
2018-01-21T09:25:28.670Z,4.50
2018-01-21T09:27:56.153Z,5.70
2018-01-21T09:30:23.665Z,6.10
2018-01-21T09:32:51.921Z,5.70
2018-01-21T09:35:19.434Z,5.70
2018-01-21T09:37:46.922Z,5.60
2018-01-21T09:40:14.405Z,6.20
2018-01-21T09:42:41.910Z,6.00
2018-01-21T09:45:09.397Z,5.70
2018-01-21T09:47:36.910Z,5.80
2018-01-21T09:50:04.394Z,5.70
2018-01-21T09:52:31.874Z,5.40
2018-01-21T09:54:59.378Z,5.10
2018-01-21T09:57:26.866Z,4.90
2018-01-21T09:59:54.382Z,4.80
2018-01-21T10:02:22.629Z,5.00
2018-01-21T10:04:50.138Z,5.00
2018-01-21T10:07:17.621Z,5.70
2018-01-21T10:09:45.125Z,6.50
2018-01-21T10:12:13.374Z,7.60
2018-01-21T10:14:40.861Z,7.60
2018-01-21T10:17:09.134Z,8.10
2018-01-21T10:19:37.381Z,7.90
2018-01-21T10:22:04.889Z,7.90
2018-01-21T10:24:32.377Z,7.30
2018-01-21T10:26:59.886Z,6.80
2018-01-21T10:29:28.132Z,6.20
2018-01-21T10:31:55.618Z,6.20
2018-01-21T10:34:23.895Z,5.80
2018-01-21T10:36:52.145Z,5.60
2018-01-21T10:39:19.629Z,5.60
2018-01-21T10:41:47.905Z,5.20
2018-01-21T10:44:16.153Z,5.10
2018-01-21T10:46:43.657Z,5.10
2018-01-21T10:49:11.147Z,5.00
2018-01-21T10:51:38.644Z,5.00
2018-01-21T10:54:06.149Z,5.00
2018-01-21T10:56:33.634Z,5.00
2018-01-21T10:59:01.142Z,5.00
2018-01-21T11:01:28.649Z,5.00
2018-01-21T11:03:56.157Z,5.00
2018-01-21T11:06:24.409Z,5.00
2018-01-21T11:08:52.685Z,4.90
2018-01-21T11:11:20.170Z,4.90
2018-01-21T11:13:48.445Z,5.00
2018-01-21T11:16:16.693Z,5.00
2018-01-21T11:18:44.180Z,5.00
2018-01-21T11:21:12.454Z,5.20
2018-01-21T11:23:40.701Z,5.20
2018-01-21T11:26:08.214Z,5.20
2018-01-21T11:28:35.703Z,5.20
2018-01-21T11:31:03.190Z,5.20
2018-01-21T11:33:31.466Z,5.90
2018-01-21T11:35:59.713Z,6.90
2018-01-21T11:38:27.217Z,6.80
2018-01-21T11:40:55.473Z,8.70
2018-01-21T11:43:22.981Z,8.60
2018-01-21T11:45:50.466Z,9.60
2018-01-21T11:48:17.990Z,10.50
2018-01-21T11:50:45.482Z,11.20
2018-01-21T11:53:12.970Z,11.50
2018-01-21T11:55:41.246Z,12.30
2018-01-21T11:58:09.500Z,12.40
2018-01-21T12:00:37.014Z,12.40
2018-01-21T12:03:04.501Z,11.60
2018-01-21T12:05:32.010Z,11.60
2018-01-21T12:08:00.261Z,12.60
2018-01-21T12:10:28.542Z,13.10
2018-01-21T12:12:56.801Z,12.90
2018-01-21T12:15:24.293Z,12.90
2018-01-21T12:17:51.813Z,12.40
2018-01-21T12:20:19.306Z,11.50
2018-01-21T12:22:47.586Z,10.40
2018-01-21T12:25:15.837Z,9.80
2018-01-21T12:27:43.351Z,9.70
2018-01-21T12:30:10.837Z,9.50
2018-01-21T12:32:38.347Z,9.00
2018-01-21T12:35:05.835Z,8.90
2018-01-21T12:37:33.322Z,9.40
2018-01-21T12:40:00.833Z,10.00
2018-01-21T12:42:28.321Z,10.20
2018-01-21T12:44:55.830Z,10.00
2018-01-21T12:47:24.081Z,10.00
2018-01-21T12:49:51.569Z,10.00
2018-01-21T12:52:19.077Z,10.20
2018-01-21T12:54:46.568Z,10.00
2018-01-21T12:57:14.845Z,9.60
2018-01-21T12:59:43.105Z,9.10
2018-01-21T13:02:10.589Z,9.10
2018-01-21T13:04:38.868Z,9.00
2018-01-21T13:07:07.117Z,9.30
2018-01-21T13:09:34.626Z,9.20
2018-01-21T13:12:02.110Z,9.60
2018-01-21T13:14:29.593Z,9.80
2018-01-21T13:16:57.102Z,10.00
2018-01-21T13:19:24.590Z,9.90
2018-01-21T13:21:52.106Z,10.00
2018-01-21T13:24:19.602Z,10.10
2018-01-21T13:26:47.109Z,10.10
2018-01-21T13:29:15.361Z,9.60
2018-01-21T13:31:42.870Z,9.50
2018-01-21T13:34:10.357Z,9.30
2018-01-21T13:36:37.846Z,8.80
2018-01-21T13:39:06.123Z,7.80
2018-01-21T13:41:34.373Z,7.50
2018-01-21T13:44:01.877Z,7.40
2018-01-21T13:46:29.361Z,7.10
2018-01-21T13:48:56.850Z,6.90
2018-01-21T13:51:24.352Z,6.90
2018-01-21T13:53:51.841Z,6.90
2018-01-21T13:56:19.349Z,6.90
2018-01-21T13:58:47.602Z,7.40
2018-01-21T14:01:15.110Z,7.30
2018-01-21T14:03:42.594Z,7.20
2018-01-21T14:06:10.077Z,6.90
2018-01-21T14:08:39.089Z,6.70
2018-01-21T14:11:07.343Z,6.50
2018-01-21T14:13:34.844Z,6.50
2018-01-21T14:16:02.338Z,6.40
2018-01-21T14:18:29.850Z,6.20
2018-01-21T14:20:57.333Z,6.10
2018-01-21T14:23:24.845Z,5.90
2018-01-21T14:25:52.332Z,5.90
2018-01-21T14:28:19.845Z,5.90
2018-01-21T14:30:47.329Z,5.80
2018-01-21T14:33:15.581Z,5.80
2018-01-21T14:35:43.091Z,5.80
2018-01-21T14:38:10.582Z,5.80
2018-01-21T14:40:38.065Z,5.80
2018-01-21T14:43:05.578Z,5.80
2018-01-21T14:45:33.066Z,5.80
2018-01-21T14:48:00.557Z,5.70
2018-01-21T14:50:28.833Z,5.70
2018-01-21T14:52:57.081Z,5.60
2018-01-21T14:55:24.589Z,5.60
2018-01-21T14:57:52.073Z,5.50
2018-01-21T15:00:19.577Z,5.50
2018-01-21T15:02:47.830Z,5.30
2018-01-21T15:05:15.342Z,5.30
2018-01-21T15:07:42.825Z,5.20
2018-01-21T15:10:10.309Z,5.10
2018-01-21T15:12:37.842Z,5.10
2018-01-21T15:15:05.317Z,5.10
2018-01-21T15:17:32.825Z,5.00
2018-01-21T15:20:00.330Z,5.00
2018-01-21T15:22:27.838Z,4.90
2018-01-21T15:24:55.322Z,4.90
2018-01-21T15:27:22.809Z,4.90
2018-01-21T15:29:50.317Z,4.80
2018-01-21T15:32:17.801Z,4.70
2018-01-21T15:34:45.309Z,4.70
2018-01-21T15:37:13.559Z,4.70
2018-01-21T15:39:41.068Z,4.70
2018-01-21T15:42:08.553Z,4.80
2018-01-21T15:44:36.038Z,4.70
2018-01-21T15:47:03.551Z,4.60
2018-01-21T15:49:31.042Z,4.60
2018-01-21T15:51:58.551Z,4.60
2018-01-21T15:54:26.037Z,4.50
2018-01-21T15:56:53.541Z,4.50
2018-01-21T15:59:21.026Z,4.50
2018-01-21T16:01:49.278Z,4.40
2018-01-21T16:04:16.781Z,4.40
2018-01-21T16:06:44.267Z,4.40
2018-01-21T16:09:11.780Z,4.40
2018-01-21T16:11:39.269Z,4.30
2018-01-21T16:14:06.778Z,4.30
2018-01-21T16:16:35.045Z,4.30
2018-01-21T16:19:02.533Z,4.30
2018-01-21T16:21:30.061Z,4.20
2018-01-21T16:23:57.550Z,4.30
2018-01-21T16:26:25.057Z,4.30
2018-01-21T16:28:52.543Z,4.30
2018-01-21T16:31:20.797Z,4.30
2018-01-21T16:33:48.309Z,4.20
2018-01-21T16:36:30.676Z,4.30
2018-01-21T16:39:00.101Z,4.20
2018-01-21T16:41:27.602Z,4.20
2018-01-21T16:43:55.110Z,4.20
2018-01-21T16:46:23.366Z,4.10
2018-01-21T16:48:50.881Z,4.10
2018-01-21T16:51:18.366Z,4.10
2018-01-21T16:53:45.854Z,4.10
2018-01-21T16:56:14.134Z,4.10
2018-01-21T16:58:42.386Z,4.10
2018-01-21T17:01:09.902Z,4.10
2018-01-21T17:03:37.401Z,4.10
2018-01-21T17:06:04.921Z,4.00
2018-01-21T17:08:32.417Z,4.00
2018-01-21T17:11:00.689Z,3.90
2018-01-21T17:13:28.173Z,3.90
2018-01-21T17:15:56.453Z,3.80
2018-01-21T17:18:24.706Z,3.80
2018-01-21T17:20:52.189Z,3.70
2018-01-21T17:23:20.457Z,3.70
2018-01-21T17:25:47.941Z,3.70
2018-01-21T17:28:15.452Z,3.70
2018-01-21T17:30:42.937Z,3.80
2018-01-21T17:33:11.205Z,3.70
2018-01-21T17:35:38.694Z,3.70
2018-01-21T17:38:06.182Z,3.70
2018-01-21T17:40:33.697Z,3.70
2018-01-21T17:43:01.954Z,3.70
2018-01-21T17:45:29.473Z,3.60
2018-01-21T17:47:56.957Z,3.60
2018-01-21T17:50:24.465Z,3.60
2018-01-21T17:52:51.953Z,3.60
2018-01-21T17:55:19.437Z,3.60
2018-01-21T17:57:46.950Z,3.60
2018-01-21T18:00:14.438Z,3.60
2018-01-21T18:02:41.945Z,3.50
2018-01-21T18:05:09.438Z,3.50
2018-01-21T18:07:36.925Z,3.50
2018-01-21T18:10:04.439Z,3.60
2018-01-21T18:12:31.933Z,3.60
2018-01-21T18:15:00.210Z,3.50
2018-01-21T18:17:27.693Z,3.50
2018-01-21T18:19:55.953Z,3.40
2018-01-21T18:22:23.461Z,3.40
2018-01-21T18:24:50.951Z,3.40
2018-01-21T18:27:18.462Z,3.40
2018-01-21T18:29:45.946Z,3.40
2018-01-21T18:32:13.430Z,3.40
2018-01-21T18:34:40.937Z,3.40
2018-01-21T18:37:08.427Z,3.40
2018-01-21T18:39:35.937Z,3.50
2018-01-21T18:42:04.190Z,3.50
2018-01-21T18:44:31.710Z,3.40
2018-01-21T18:46:59.217Z,3.40
2018-01-21T18:49:26.721Z,3.40
2018-01-21T18:51:54.209Z,3.40
2018-01-21T18:54:21.692Z,3.40
2018-01-21T18:56:49.965Z,3.40
2018-01-21T18:59:17.449Z,3.40
2018-01-21T19:01:44.972Z,3.50
2018-01-21T19:04:12.452Z,3.50
2018-01-21T19:06:40.702Z,3.40
2018-01-21T19:09:08.230Z,3.40
2018-01-21T19:11:35.721Z,3.40
2018-01-21T19:14:03.230Z,3.40
2018-01-21T19:16:30.725Z,3.40
2018-01-21T19:18:58.214Z,3.40
2018-01-21T19:21:26.485Z,3.50
2018-01-21T19:23:53.963Z,3.40
2018-01-21T19:26:22.233Z,3.40
2018-01-21T19:28:50.477Z,3.40
2018-01-21T19:31:17.990Z,3.40
2018-01-21T19:33:45.472Z,3.40
2018-01-21T19:36:12.958Z,3.40
2018-01-21T19:38:50.394Z,3.40
2018-01-21T19:41:23.641Z,3.40
2018-01-21T19:43:52.097Z,3.40
2018-01-21T19:46:19.594Z,3.30
2018-01-21T19:48:47.087Z,3.30
2018-01-21T19:51:14.594Z,3.20
2018-01-21T19:53:42.074Z,3.20
2018-01-21T19:56:10.345Z,3.20
2018-01-21T19:58:37.830Z,3.20
2018-01-21T20:01:05.313Z,3.20
2018-01-21T20:03:32.822Z,3.10
2018-01-21T20:06:01.078Z,3.00
2018-01-21T20:08:28.587Z,2.90
2018-01-21T20:10:56.072Z,2.80
2018-01-21T20:13:23.556Z,2.70
2018-01-21T20:15:51.061Z,2.60
2018-01-21T20:18:18.607Z,2.60
2018-01-21T20:20:46.081Z,2.60
2018-01-21T20:23:13.569Z,2.50
2018-01-21T20:25:41.073Z,2.50
2018-01-21T20:28:09.322Z,2.50
2018-01-21T20:30:38.342Z,2.40
2018-01-21T20:33:06.594Z,2.40
2018-01-21T20:35:34.114Z,2.40
2018-01-21T20:38:01.626Z,2.30
2018-01-21T20:40:29.886Z,2.20
2018-01-21T20:42:57.404Z,2.20
2018-01-21T20:45:24.890Z,2.20
2018-01-21T20:47:52.398Z,2.20
2018-01-21T20:50:19.887Z,2.10
2018-01-21T20:52:47.400Z,2.10
2018-01-21T20:55:15.653Z,2.10
2018-01-21T20:57:43.161Z,2.00
2018-01-21T21:00:10.649Z,2.10
2018-01-21T21:02:38.133Z,2.10
2018-01-21T21:05:05.645Z,2.00
2018-01-21T21:07:33.142Z,2.10
2018-01-21T21:10:00.653Z,2.10
2018-01-21T21:12:28.138Z,2.10
2018-01-21T21:14:55.654Z,2.10
2018-01-21T21:17:23.905Z,2.20
2018-01-21T21:19:51.419Z,2.20
2018-01-21T21:22:18.906Z,2.10
2018-01-21T21:24:46.449Z,2.10
2018-01-21T21:27:13.923Z,2.10
2018-01-21T21:29:41.413Z,2.10
2018-01-21T21:32:09.685Z,2.00
2018-01-21T21:34:37.938Z,2.00
2018-01-21T21:37:05.435Z,2.00
2018-01-21T21:39:32.949Z,1.90
2018-01-21T21:42:00.434Z,1.80
2018-01-21T21:44:28.714Z,1.70
2018-01-21T21:46:56.970Z,1.70
2018-01-21T21:49:24.453Z,1.70
2018-01-21T21:51:52.732Z,1.70
2018-01-21T21:54:20.985Z,1.60
2018-01-21T21:56:48.497Z,1.60
2018-01-21T21:59:15.987Z,1.60
2018-01-21T22:01:43.478Z,1.50
2018-01-21T22:04:11.753Z,1.50
2018-01-21T22:06:40.006Z,1.50
2018-01-21T22:09:07.522Z,1.40
2018-01-21T22:11:35.019Z,1.40
2018-01-21T22:14:02.509Z,1.40
2018-01-21T22:16:30.785Z,1.40
2018-01-21T22:18:59.041Z,1.40
2018-01-21T22:21:26.562Z,1.40
2018-01-21T22:23:54.049Z,1.40
2018-01-21T22:26:21.564Z,1.30
2018-01-21T22:28:49.056Z,1.30
2018-01-21T22:31:16.558Z,1.30
2018-01-21T22:33:44.080Z,1.30
2018-01-21T22:36:11.574Z,1.40
2018-01-21T22:38:39.069Z,1.30
2018-01-21T22:41:06.581Z,1.40
2018-01-21T22:43:34.834Z,1.40
2018-01-21T22:46:02.359Z,1.40
2018-01-21T22:48:29.850Z,1.40
2018-01-21T22:50:57.337Z,1.40
2018-01-21T22:53:25.627Z,1.40
2018-01-21T22:55:53.121Z,1.40
2018-01-21T22:58:20.614Z,1.50
2018-01-21T23:00:48.894Z,1.40
2018-01-21T23:03:17.158Z,1.50
2018-01-21T23:05:44.655Z,1.50
2018-01-21T23:08:12.165Z,1.50
2018-01-21T23:10:39.657Z,1.60
2018-01-21T23:13:07.940Z,1.60
2018-01-21T23:15:35.425Z,1.60
2018-01-21T23:18:02.933Z,1.60
2018-01-21T23:20:42.938Z,1.70
2018-01-21T23:23:10.426Z,1.70
2018-01-21T23:25:37.921Z,1.70
2018-01-21T23:28:05.436Z,1.70
2018-01-21T23:30:32.925Z,1.70
2018-01-21T23:33:01.206Z,1.80
2018-01-21T23:35:29.466Z,1.80
2018-01-21T23:37:57.717Z,1.90
2018-01-21T23:40:25.225Z,1.90
2018-01-21T23:42:52.718Z,1.90
2018-01-21T23:45:20.205Z,1.90
2018-01-21T23:47:47.714Z,1.90
2018-01-21T23:50:15.205Z,1.90
2018-01-21T23:52:43.458Z,2.00
2018-01-21T23:55:10.965Z,2.00
2018-01-21T23:57:38.454Z,2.00
